Imperial Beach, CA (91932)

3:12 PM PDT on August 03, 2015 (GMT -0700)
KCAIMPER2 | | Change Station
CLOSE
Current Station
Personal Weather Station
Location: Imperial Beach, CA
Elevation: 14 ft
Nearby Weather Stations

Elev 14 ft 32.58 °N, 117.13 °W | Updated 8 minutes ago

Scattered Clouds
Scattered Clouds
73.2 °F
Feels Like 74 °F
N
4.0
Wind Variable Wind from WSW
Gusts 11.0 mph

Today
High -- | Low -- °F
--% Chance of Precip.
Yesterday
High -- | Low -- °F
Precip. -- in
6:03 AM 7:44 PM
Waning Gibbous, 83% visible
Pressure 29.91 in
Visibility 9.0 miles
Clouds Few 1200 ft
Scattered Clouds 25000 ft
Heat Index 74 °F
Dew Point 66 °F
Humidity 79%
Rainfall 0.00 in
Snow Depth Not available.
UV 7 out of 12
Pollen 4.60 out of 12
Air Quality Not available.
Flu Activity Not available.
METAR KNRS 032156Z 27010KT 9SM FEW012 SCT250 24/17 A2990 RMK AO2 SLP126 T02390172 $

More Conditions Fewer Conditions

Pressure 29.91 in
Visibility 9.0 miles
Clouds Few 1200 ft
Scattered Clouds 25000 ft
Heat Index 74 °F
Dew Point 66 °F
Humidity 79%
Rainfall 0.00 in
Snow Depth Not available.
UV 7 out of 12
Pollen 4.60 out of 12
Air Quality Not available.
Flu Activity Not available.
METAR KNRS 032156Z 27010KT 9SM FEW012 SCT250 24/17 A2990 RMK AO2 SLP126 T02390172 $

More Conditions Fewer Conditions

10-Day Weather Forecast

×

Almanac

Astronomy

Aug. 03, 2015 Rise Set
Actual Time
Civil Twilight
Nautical Twilight
Astronomical Twilight
Moon
Length of Visible Light
Length of Day
Tomorrow will be .
, % of the Moon is Illuminated

Today's Extremes

State Highs State Lows

Community

WunderPhotos

Upload Photos

1,843,782 photos uploaded!

WunderBlogs® & News

Nearby

Air Quality

  Air Quality AQ Index Pollutant
Not available.

Snow Depth

Station Depth Elevation

Earthquake Activity

City Distance Mag. Time & Date
Minimum magnitude displayed is 2.5.

Coastal Water Temperatures

Place Temperature

Stations

Nearby Weather Stations

Station Location Temp. Windchill Dew Point Humidity Wind Precip. Elev Updated Type